Azamara Quest — V7DM6 — position and weather

sailwx.info

Track history (hours):
 
Tides and Currents Weather Stations Pressure Air Temp Water Temp Dewpoint Dewpoint Depression Visibility Wind Speed Wind Dir Waves Ship Positions

Azamara Quest

Last reported at 2019-Nov-19 23:30 UTC. Time now 2019-Nov-20 09:41 UTC.
Position N 57°10' E 007°53'.

Length 184 m; draft 10.9 m.

Type: Tanker. MMSI: 538005401.

Date/timePositionNaut miles runAvg speedWind from/ knotsBaromVisibWave heightAir tempDewpointWater temp
2019-Nov-19 23:30N 57°10' E 007°53'1312.5
2019-Nov-19 22:25N 57°18' E 008°12'1812.4
2019-Nov-19 20:59N 57°30' E 008°38'3112.4
2019-Nov-19 18:28N 57°47' E 009°26'612.3
2019-Nov-19 18:00N 57°48' E 009°37'4111.8
2019-Nov-19 14:30N 57°44' E 010°54'1212.4
2019-Nov-19 13:30N 57°36' E 011°11'3112.5
2019-Nov-19 11:00N 57°08' E 011°39'13111.4
2019-Nov-18 23:30N 54°59' E 010°59'1111.4
2019-Nov-18 22:30N 54°49' E 010°50'713.1
2019-Nov-18 22:00N 54°43' E 010°47'612.4
2019-Nov-18 21:30N 54°38' E 010°54'1312.6
2019-Nov-18 20:30N 54°34' E 011°15'713.2
2019-Nov-18 20:00N 54°32' E 011°25'612.4
2019-Nov-18 19:30N 54°29' E 011°35'33 9.5
2019-Nov-18 16:00N 54°41' E 012°29'12812.2
2019-Nov-18 05:30N 55°47' E 015°42'713.0
2019-Nov-18 05:00N 55°51' E 015°52'1312.9
2019-Nov-18 04:00N 55°57' E 016°12'613.0
2019-Nov-18 03:30N 56°00' E 016°22'2013.1
2019-Nov-18 02:00N 56°11' E 016°52'1313.1
2019-Nov-18 01:00N 56°19' E 017°10'2013.1
2019-Nov-17 23:30N 56°30' E 017°39'713.1
2019-Nov-17 23:00N 56°34' E 017°48'1313.1
2019-Nov-17 22:00N 56°42' E 018°07'2612.7
2019-Nov-17 20:00N 56°60' E 018°41'3212.8
2019-Nov-17 17:30N 57°25' E 019°17'813.0
2019-Nov-17 16:53N 57°31' E 019°27'15411.2
2019-Nov-17 03:09N 59°31' E 022°32'2011.9
2019-Nov-17 01:30N 59°36' E 023°09'4912.3
2019-Nov-16 21:30N 59°49' E 024°42'1212.5
2019-Nov-16 20:30N 59°52' E 025°07'1212.4
2019-Nov-16 19:30N 59°54' E 025°31'712.2
2019-Nov-16 18:56N 59°55' E 025°45'512.3
2019-Nov-16 18:30N 59°56' E 025°55'1212.4
2019-Nov-16 17:30N 59°59' E 026°19'612.3
2019-Nov-16 17:00N 60°01' E 026°31'1212.2
2019-Nov-16 16:00N 59°60' E 026°55'612.3
2019-Nov-16 15:30N 60°01' E 027°07'51 2.9
2019-Nov-15 22:07N 60°20' E 028°42'0 0.0
2019-Nov-15 17:56N 60°20' E 028°42'0 0.0
2019-Nov-15 15:19N 60°20' E 028°42'1 0.1
2019-Nov-15 07:00N 60°20' E 028°42'18 7.3
2019-Nov-15 04:30N 60°02' E 028°31'2 1.6
2019-Nov-15 03:30N 60°01' E 028°29'0 0.0
2019-Nov-14 23:57N 60°01' E 028°29'0 0.0
2019-Nov-14 22:30N 60°01' E 028°29'0 0.0
2019-Nov-14 19:30N 60°01' E 028°29'0 0.0
2019-Nov-14 19:00N 60°01' E 028°29'0 0.3
2019-Nov-14 18:30N 60°01' E 028°28'5 9.4
2019-Nov-14 18:00N 60°05' E 028°22'612.0
2019-Nov-14 17:31N 60°08' E 028°11'8411.8
2019-Nov-14 10:24N 59°50' E 025°28'34 8.8
2019-Nov-14 06:30N 59°30' E 024°32'0 0.1
2019-Nov-14 03:56N 59°29' E 024°32'0 0.0
2019-Nov-14 01:56N 59°29' E 024°32'0 0.0
2019-Nov-13 23:29N 59°29' E 024°33'15 7.7
2019-Nov-13 21:30N 59°29' E 024°02'3511.5
2019-Nov-13 18:30N 59°27' E 022°55'611.8
2019-Nov-13 18:00N 59°25' E 022°44'27011.3
2019-Nov-12 17:58N 56°08' E 016°57'2811.3
2019-Nov-12 15:30N 55°53' E 016°15'611.2
2019-Nov-12 15:00N 55°50' E 016°06'1111.2
2019-Nov-12 14:01N 55°44' E 015°49'510.9
2019-Nov-12 13:30N 55°42' E 015°41'510.8
2019-Nov-12 13:00N 55°39' E 015°33'1111.0
2019-Nov-12 12:00N 55°34' E 015°16'511.0
2019-Nov-12 11:30N 55°31' E 015°07'8310.3
2019-Nov-12 03:30N 55°16' E 012°44'10 9.5
2019-Nov-12 02:31N 55°26' E 012°40'9 9.5
2019-Nov-12 01:30N 55°34' E 012°48'14 9.3
2019-Nov-12 00:01N 55°48' E 012°48'2610.6
2019-Nov-11 21:30N 56°10' E 012°23'4 8.5
2019-Nov-11 21:00N 56°13' E 012°17'6911.6
2019-Nov-11 15:00N 57°17' E 011°31'2311.3
2019-Nov-11 13:01N 57°38' E 011°14'1211.9
2019-Nov-11 12:00N 57°49' E 011°04'1611.0
2019-Nov-11 10:30N 57°58' E 010°39'1711.2
2019-Nov-11 09:01N 57°59' E 010°07'3411.4
2019-Nov-11 06:00N 57°39' E 009°14'4111.7
2019-Nov-11 02:30N 57°16' E 008°12'611.6
2019-Nov-11 01:58N 57°11' E 008°04'  
Track history (hours):
 
Tides and Currents Weather Stations Pressure Air Temp Water Temp Dewpoint Dewpoint Depression Visibility Wind Speed Wind Dir Waves Ship Positions

Azamara Quest

Last reported at 2019-Nov-19 23:30 UTC. Time now 2019-Nov-20 09:41 UTC.
Position N 57°10' E 007°53'.

Length 184 m; draft 10.9 m.

Type: Tanker. MMSI: 538005401.

Date/timePositionNaut miles runAvg speedWind from/ knotsBaromVisibWave heightAir tempDewpointWater temp
2019-Nov-19 23:30N 57°10' E 007°53'1312.5
2019-Nov-19 22:25N 57°18' E 008°12'1812.4
2019-Nov-19 20:59N 57°30' E 008°38'3112.4
2019-Nov-19 18:28N 57°47' E 009°26'612.3
2019-Nov-19 18:00N 57°48' E 009°37'4111.8
2019-Nov-19 14:30N 57°44' E 010°54'1212.4
2019-Nov-19 13:30N 57°36' E 011°11'3112.5
2019-Nov-19 11:00N 57°08' E 011°39'13111.4
2019-Nov-18 23:30N 54°59' E 010°59'1111.4
2019-Nov-18 22:30N 54°49' E 010°50'713.1
2019-Nov-18 22:00N 54°43' E 010°47'612.4
2019-Nov-18 21:30N 54°38' E 010°54'1312.6
2019-Nov-18 20:30N 54°34' E 011°15'713.2
2019-Nov-18 20:00N 54°32' E 011°25'612.4
2019-Nov-18 19:30N 54°29' E 011°35'33 9.5
2019-Nov-18 16:00N 54°41' E 012°29'12812.2
2019-Nov-18 05:30N 55°47' E 015°42'713.0
2019-Nov-18 05:00N 55°51' E 015°52'1312.9
2019-Nov-18 04:00N 55°57' E 016°12'613.0
2019-Nov-18 03:30N 56°00' E 016°22'2013.1
2019-Nov-18 02:00N 56°11' E 016°52'1313.1
2019-Nov-18 01:00N 56°19' E 017°10'2013.1
2019-Nov-17 23:30N 56°30' E 017°39'713.1
2019-Nov-17 23:00N 56°34' E 017°48'1313.1
2019-Nov-17 22:00N 56°42' E 018°07'2612.7
2019-Nov-17 20:00N 56°60' E 018°41'3212.8
2019-Nov-17 17:30N 57°25' E 019°17'813.0
2019-Nov-17 16:53N 57°31' E 019°27'15411.2
2019-Nov-17 03:09N 59°31' E 022°32'2011.9
2019-Nov-17 01:30N 59°36' E 023°09'4912.3
2019-Nov-16 21:30N 59°49' E 024°42'1212.5
2019-Nov-16 20:30N 59°52' E 025°07'1212.4
2019-Nov-16 19:30N 59°54' E 025°31'712.2
2019-Nov-16 18:56N 59°55' E 025°45'512.3
2019-Nov-16 18:30N 59°56' E 025°55'1212.4
2019-Nov-16 17:30N 59°59' E 026°19'612.3
2019-Nov-16 17:00N 60°01' E 026°31'1212.2
2019-Nov-16 16:00N 59°60' E 026°55'612.3
2019-Nov-16 15:30N 60°01' E 027°07'51 2.9
2019-Nov-15 22:07N 60°20' E 028°42'0 0.0
2019-Nov-15 17:56N 60°20' E 028°42'0 0.0
2019-Nov-15 15:19N 60°20' E 028°42'1 0.1
2019-Nov-15 07:00N 60°20' E 028°42'18 7.3
2019-Nov-15 04:30N 60°02' E 028°31'2 1.6
2019-Nov-15 03:30N 60°01' E 028°29'0 0.0
2019-Nov-14 23:57N 60°01' E 028°29'0 0.0
2019-Nov-14 22:30N 60°01' E 028°29'0 0.0
2019-Nov-14 19:30N 60°01' E 028°29'0 0.0
2019-Nov-14 19:00N 60°01' E 028°29'0 0.3
2019-Nov-14 18:30N 60°01' E 028°28'5 9.4
2019-Nov-14 18:00N 60°05' E 028°22'612.0
2019-Nov-14 17:31N 60°08' E 028°11'8411.8
2019-Nov-14 10:24N 59°50' E 025°28'34 8.8
2019-Nov-14 06:30N 59°30' E 024°32'0 0.1
2019-Nov-14 03:56N 59°29' E 024°32'0 0.0
2019-Nov-14 01:56N 59°29' E 024°32'0 0.0
2019-Nov-13 23:29N 59°29' E 024°33'15 7.7
2019-Nov-13 21:30N 59°29' E 024°02'3511.5
2019-Nov-13 18:30N 59°27' E 022°55'611.8
2019-Nov-13 18:00N 59°25' E 022°44'27011.3
2019-Nov-12 17:58N 56°08' E 016°57'2811.3
2019-Nov-12 15:30N 55°53' E 016°15'611.2
2019-Nov-12 15:00N 55°50' E 016°06'1111.2
2019-Nov-12 14:01N 55°44' E 015°49'510.9
2019-Nov-12 13:30N 55°42' E 015°41'510.8
2019-Nov-12 13:00N 55°39' E 015°33'1111.0
2019-Nov-12 12:00N 55°34' E 015°16'511.0
2019-Nov-12 11:30N 55°31' E 015°07'8310.3
2019-Nov-12 03:30N 55°16' E 012°44'10 9.5
2019-Nov-12 02:31N 55°26' E 012°40'9 9.5
2019-Nov-12 01:30N 55°34' E 012°48'14 9.3
2019-Nov-12 00:01N 55°48' E 012°48'2610.6
2019-Nov-11 21:30N 56°10' E 012°23'4 8.5
2019-Nov-11 21:00N 56°13' E 012°17'6911.6
2019-Nov-11 15:00N 57°17' E 011°31'2311.3
2019-Nov-11 13:01N 57°38' E 011°14'1211.9
2019-Nov-11 12:00N 57°49' E 011°04'1611.0
2019-Nov-11 10:30N 57°58' E 010°39'1711.2
2019-Nov-11 09:01N 57°59' E 010°07'3411.4
2019-Nov-11 06:00N 57°39' E 009°14'4111.7
2019-Nov-11 02:30N 57°16' E 008°12'611.6
2019-Nov-11 01:58N 57°11' E 008°04'  

Dump ship's entire track history